createdAt,value
2018-11-10T00:00:44.373Z,96.12
2018-11-10T00:03:12.903Z,96.84
2018-11-10T00:05:41.454Z,97.49
2018-11-10T00:08:09.994Z,98.50
2018-11-10T00:10:38.572Z,99.16
2018-11-10T00:13:07.147Z,98.82
2018-11-10T00:15:35.716Z,99.50
2018-11-10T00:18:04.376Z,99.77
2018-11-10T00:20:32.884Z,99.38
2018-11-10T00:23:01.445Z,98.13
2018-11-10T00:25:30.024Z,97.43
2018-11-10T00:27:58.666Z,96.56
2018-11-10T00:30:27.312Z,96.12
2018-11-10T00:32:55.876Z,96.09
2018-11-10T00:35:24.760Z,96.18
2018-11-10T00:37:53.292Z,95.66
2018-11-10T00:40:21.944Z,95.58
2018-11-10T00:42:50.499Z,95.33
2018-11-10T00:45:19.428Z,95.69
2018-11-10T00:47:48.227Z,95.63
2018-11-10T00:50:16.805Z,95.23
2018-11-10T00:52:45.397Z,94.89
2018-11-10T00:55:13.919Z,94.32
2018-11-10T00:57:42.488Z,94.24
2018-11-10T01:00:12.565Z,94.06
2018-11-10T01:02:42.139Z,94.10
2018-11-10T01:05:10.877Z,94.18
2018-11-10T01:07:39.976Z,93.87
2018-11-10T01:10:10.303Z,94.11
2018-11-10T01:12:38.892Z,94.07
2018-11-10T01:15:09.409Z,94.22
2018-11-10T01:17:37.956Z,94.69
2018-11-10T01:20:07.629Z,95.97
2018-11-10T01:22:36.212Z,95.50
2018-11-10T01:25:05.382Z,95.61
2018-11-10T01:27:33.936Z,95.32
2018-11-10T01:30:02.585Z,94.91
2018-11-10T01:32:31.292Z,95.73
2018-11-10T01:34:59.827Z,95.95
2018-11-10T01:37:28.470Z,96.13
2018-11-10T01:39:57.008Z,96.92
2018-11-10T01:42:25.616Z,96.99
2018-11-10T01:44:54.217Z,97.02
2018-11-10T01:47:22.755Z,97.51
2018-11-10T01:49:51.413Z,97.35
2018-11-10T01:52:19.954Z,97.32
2018-11-10T01:54:48.692Z,97.27
2018-11-10T01:57:17.244Z,97.33
2018-11-10T01:59:45.859Z,96.74
2018-11-10T02:02:14.501Z,96.28
2018-11-10T02:04:43.024Z,96.25
2018-11-10T02:07:11.560Z,95.97
2018-11-10T02:09:40.199Z,95.52
2018-11-10T02:12:08.747Z,95.77
2018-11-10T02:14:37.384Z,95.43
2018-11-10T02:17:06.123Z,96.19
2018-11-10T02:19:34.819Z,95.91
2018-11-10T02:22:03.465Z,96.20
2018-11-10T02:24:32.156Z,96.81
2018-11-10T02:27:00.776Z,96.79
2018-11-10T02:29:29.380Z,96.42
2018-11-10T02:31:57.887Z,96.03
2018-11-10T02:34:26.505Z,95.70
2018-11-10T02:36:55.056Z,95.93
2018-11-10T02:39:23.598Z,95.75
2018-11-10T02:41:52.264Z,95.79
2018-11-10T02:44:20.760Z,95.73
2018-11-10T02:46:49.342Z,96.29
2018-11-10T02:49:17.864Z,95.84
2018-11-10T02:51:46.376Z,96.68
2018-11-10T02:54:14.924Z,96.43
2018-11-10T02:56:43.852Z,96.31
2018-11-10T02:59:12.433Z,96.69
2018-11-10T03:01:41.017Z,94.44
2018-11-10T03:04:09.588Z,93.93
2018-11-10T03:06:38.061Z,92.77
2018-11-10T03:09:07.899Z,91.75
2018-11-10T03:11:36.526Z,92.11
2018-11-10T03:14:05.104Z,92.74
2018-11-10T03:16:34.020Z,93.25
2018-11-10T03:19:02.728Z,93.23
2018-11-10T03:21:31.219Z,91.69
2018-11-10T03:23:59.732Z,91.58
2018-11-10T03:26:28.272Z,91.11
2018-11-10T03:28:56.780Z,91.08
2018-11-10T03:31:25.448Z,90.85
2018-11-10T03:33:54.043Z,91.52
2018-11-10T03:36:22.608Z,91.73
2018-11-10T03:38:51.104Z,90.95
2018-11-10T03:41:19.630Z,91.08
2018-11-10T03:43:48.146Z,91.36
2018-11-10T03:46:16.808Z,92.12
2018-11-10T03:48:45.472Z,91.94
2018-11-10T03:51:13.968Z,91.87
2018-11-10T03:53:42.696Z,91.41
2018-11-10T03:56:11.192Z,90.74
2018-11-10T03:58:39.883Z,91.01
2018-11-10T04:01:08.516Z,91.09
2018-11-10T04:03:37.129Z,91.22
2018-11-10T04:06:05.769Z,90.10
2018-11-10T04:08:34.239Z,91.36
2018-11-10T04:11:02.868Z,90.73
2018-11-10T04:13:31.392Z,91.99
2018-11-10T04:15:59.919Z,92.95
2018-11-10T04:18:28.532Z,93.65
2018-11-10T04:20:57.096Z,93.89
2018-11-10T04:23:25.715Z,95.60
2018-11-10T04:25:54.271Z,96.21
2018-11-10T04:28:22.793Z,96.23
2018-11-10T04:30:51.408Z,96.17
2018-11-10T04:33:19.974Z,96.30
2018-11-10T04:35:48.747Z,95.64
2018-11-10T04:38:17.253Z,96.00
2018-11-10T04:40:45.856Z,95.80
2018-11-10T04:43:14.428Z,95.06
2018-11-10T04:45:42.940Z,95.18
2018-11-10T04:48:11.598Z,95.06
2018-11-10T04:50:40.126Z,95.33
2018-11-10T04:53:08.647Z,97.18
2018-11-10T04:55:37.248Z,97.60
2018-11-10T04:58:06.018Z,96.33
2018-11-10T05:00:34.788Z,96.18
2018-11-10T05:03:03.364Z,96.36
2018-11-10T05:05:31.832Z,95.62
2018-11-10T05:08:00.596Z,95.49
2018-11-10T05:10:29.247Z,96.46
2018-11-10T05:12:57.976Z,96.47
2018-11-10T05:15:26.492Z,96.66
2018-11-10T05:17:55.032Z,95.83
2018-11-10T05:20:23.695Z,97.06
2018-11-10T05:22:52.171Z,97.45
2018-11-10T05:25:20.795Z,97.92
2018-11-10T05:27:49.368Z,98.49
2018-11-10T05:30:17.903Z,99.21
2018-11-10T05:32:46.556Z,99.91
2018-11-10T05:35:15.092Z,99.70
2018-11-10T05:37:43.757Z,100.00
2018-11-10T05:40:12.717Z,100.00
2018-11-10T05:42:41.752Z,100.00
2018-11-10T05:45:10.887Z,100.00
2018-11-10T05:47:39.592Z,100.00
2018-11-10T05:50:08.959Z,100.00
2018-11-10T05:52:37.516Z,100.00
2018-11-10T05:55:07.276Z,100.00
2018-11-10T05:57:35.944Z,99.80
2018-11-10T06:00:06.248Z,99.90
2018-11-10T06:02:34.890Z,99.61
2018-11-10T06:05:03.635Z,99.74
2018-11-10T06:07:32.636Z,98.34
2018-11-10T06:10:01.302Z,98.64
2018-11-10T06:12:29.900Z,98.66
2018-11-10T06:14:58.444Z,97.53
2018-11-10T06:17:26.961Z,97.94
2018-11-10T06:19:55.820Z,98.28
2018-11-10T06:22:24.336Z,98.22
2018-11-10T06:24:52.877Z,99.19
2018-11-10T06:27:21.522Z,98.95
2018-11-10T06:29:50.118Z,99.05
2018-11-10T06:32:18.788Z,99.45
2018-11-10T06:34:47.310Z,98.88
2018-11-10T06:37:15.940Z,99.84
2018-11-10T06:39:44.563Z,99.72
2018-11-10T06:42:13.067Z,99.79
2018-11-10T06:44:41.798Z,99.61
2018-11-10T06:47:10.367Z,98.70
2018-11-10T06:49:38.904Z,99.36
2018-11-10T06:52:07.519Z,98.60
2018-11-10T06:54:36.012Z,98.74
2018-11-10T06:57:04.961Z,98.11
2018-11-10T06:59:33.581Z,98.98
2018-11-10T07:02:02.180Z,100.00
2018-11-10T07:04:31.275Z,100.00
2018-11-10T07:06:59.832Z,100.00
2018-11-10T07:09:28.532Z,100.00
2018-11-10T07:11:57.101Z,100.00
2018-11-10T07:14:25.596Z,99.79
2018-11-10T07:16:54.225Z,100.00
2018-11-10T07:19:22.900Z,100.00
2018-11-10T07:21:51.547Z,100.00
2018-11-10T07:24:20.136Z,100.00
2018-11-10T07:26:48.669Z,100.00
2018-11-10T07:29:17.260Z,100.00
2018-11-10T07:31:45.918Z,100.00
2018-11-10T07:34:14.480Z,100.00
2018-11-10T07:36:43.348Z,100.00
2018-11-10T07:39:12.636Z,100.00
2018-11-10T07:41:41.497Z,100.00
2018-11-10T07:44:10.108Z,100.00
2018-11-10T07:46:38.632Z,100.00
2018-11-10T07:49:07.250Z,100.00
2018-11-10T07:51:35.853Z,100.00
2018-11-10T07:54:04.560Z,99.88
2018-11-10T07:56:33.311Z,99.64
2018-11-10T07:59:01.864Z,100.00
2018-11-10T08:01:30.744Z,99.03
2018-11-10T08:03:59.436Z,99.13
2018-11-10T08:06:28.120Z,99.63
2018-11-10T08:08:57.814Z,100.00
2018-11-10T08:11:26.464Z,99.62
2018-11-10T08:13:55.544Z,99.41
2018-11-10T08:16:24.460Z,99.69
2018-11-10T08:18:53.101Z,99.20
2018-11-10T08:21:21.629Z,98.97
2018-11-10T08:23:50.213Z,99.02
2018-11-10T08:26:18.849Z,98.80
2018-11-10T08:28:47.408Z,99.06
2018-11-10T08:31:16.122Z,99.02
2018-11-10T08:33:44.653Z,98.82
2018-11-10T08:36:13.161Z,98.76
2018-11-10T08:38:41.939Z,98.85
2018-11-10T08:41:10.444Z,98.36
2018-11-10T08:43:39.209Z,98.73
2018-11-10T08:46:07.883Z,98.76
2018-11-10T08:48:36.409Z,98.64
2018-11-10T08:51:05.379Z,98.22
2018-11-10T08:53:34.076Z,97.70
2018-11-10T08:56:02.629Z,97.60
2018-11-10T08:58:31.284Z,97.69
2018-11-10T09:00:59.892Z,97.57
2018-11-10T09:03:28.518Z,97.32
2018-11-10T09:05:57.049Z,96.36
2018-11-10T09:08:25.650Z,96.81
2018-11-10T09:10:54.220Z,96.93
2018-11-10T09:13:23.041Z,96.72
2018-11-10T09:15:51.620Z,96.64
2018-11-10T09:18:20.378Z,96.86
2018-11-10T09:20:48.920Z,96.37
2018-11-10T09:23:17.441Z,96.34
2018-11-10T09:25:46.136Z,95.50
2018-11-10T09:28:14.843Z,94.54
2018-11-10T09:30:43.586Z,94.24
2018-11-10T09:33:12.080Z,93.26
2018-11-10T09:35:40.662Z,93.31
2018-11-10T09:38:09.385Z,92.59
2018-11-10T09:40:37.908Z,91.12
2018-11-10T09:43:06.548Z,90.00
2018-11-10T09:45:35.084Z,90.58
2018-11-10T09:48:03.633Z,90.55
2018-11-10T09:50:32.201Z,89.75
2018-11-10T09:53:00.825Z,89.49
2018-11-10T09:55:29.467Z,89.73
2018-11-10T09:57:58.063Z,90.12
2018-11-10T10:00:26.713Z,88.69
2018-11-10T10:02:55.299Z,88.37
2018-11-10T10:05:23.896Z,89.05
2018-11-10T10:07:52.463Z,88.78
2018-11-10T10:10:21.414Z,89.37
2018-11-10T10:12:49.956Z,88.32
2018-11-10T10:15:19.299Z,88.51
2018-11-10T10:17:48.220Z,88.09
2018-11-10T10:20:18.092Z,88.01
2018-11-10T10:22:47.698Z,87.87
2018-11-10T10:25:16.861Z,88.64
2018-11-10T10:27:46.399Z,87.82
2018-11-10T10:30:17.253Z,87.40
2018-11-10T10:32:47.192Z,86.50
2018-11-10T10:35:16.297Z,86.94
2018-11-10T10:37:45.715Z,85.59
2018-11-10T10:40:15.140Z,85.84
2018-11-10T10:42:44.309Z,86.37
2018-11-10T10:45:14.459Z,85.53
2018-11-10T10:47:43.352Z,86.55
2018-11-10T10:50:13.526Z,86.24
2018-11-10T10:52:42.378Z,85.71
2018-11-10T10:55:12.756Z,86.46
2018-11-10T10:57:41.876Z,86.25
2018-11-10T11:00:17.232Z,86.35
2018-11-10T11:02:51.273Z,86.58
2018-11-10T11:06:22.428Z,86.13
2018-11-10T11:08:51.152Z,87.10
2018-11-10T11:11:19.909Z,85.83
2018-11-10T11:13:48.673Z,86.50
2018-11-10T11:16:17.268Z,85.60
2018-11-10T11:18:46.003Z,84.69
2018-11-10T11:21:14.529Z,85.36
2018-11-10T11:23:43.115Z,85.37
2018-11-10T11:26:11.627Z,85.06
2018-11-10T11:28:40.263Z,85.66
2018-11-10T11:31:08.915Z,85.53
2018-11-10T11:33:37.414Z,85.55
2018-11-10T11:36:06.072Z,86.65
2018-11-10T11:38:34.602Z,87.43
2018-11-10T11:41:03.150Z,86.11
2018-11-10T11:43:31.749Z,86.75
2018-11-10T11:46:00.329Z,87.28
2018-11-10T11:48:28.909Z,86.91
2018-11-10T11:50:57.469Z,87.51
2018-11-10T11:53:25.979Z,86.78
2018-11-10T11:55:54.564Z,86.08
2018-11-10T11:58:23.186Z,86.23
2018-11-10T12:00:51.817Z,86.78
2018-11-10T12:03:20.376Z,86.44
2018-11-10T12:05:48.879Z,86.93
2018-11-10T12:08:17.620Z,86.61
2018-11-10T12:10:46.174Z,87.23
2018-11-10T12:13:14.902Z,86.62
2018-11-10T12:15:43.500Z,86.39
2018-11-10T12:18:12.166Z,86.49
2018-11-10T12:20:40.738Z,85.30
2018-11-10T12:23:09.232Z,85.34
2018-11-10T12:25:37.828Z,85.13
2018-11-10T12:28:06.916Z,84.01
2018-11-10T12:30:35.984Z,83.70
2018-11-10T12:33:04.523Z,83.00
2018-11-10T12:35:33.161Z,81.66
2018-11-10T12:38:01.716Z,80.87
2018-11-10T12:40:30.240Z,80.94
2018-11-10T12:42:58.839Z,80.26
2018-11-10T12:45:27.470Z,80.70
2018-11-10T12:47:56.053Z,79.80
2018-11-10T12:50:24.660Z,80.34
2018-11-10T12:52:53.255Z,79.00
2018-11-10T12:55:21.882Z,79.52
2018-11-10T12:57:50.575Z,80.07
2018-11-10T13:00:19.100Z,79.69
2018-11-10T13:02:47.740Z,80.15
2018-11-10T13:05:16.295Z,79.85
2018-11-10T13:07:46.239Z,79.39
2018-11-10T13:10:14.740Z,80.51
2018-11-10T13:12:43.912Z,80.79
2018-11-10T13:15:12.544Z,80.57
2018-11-10T13:17:41.237Z,79.89
2018-11-10T13:20:12.574Z,80.49
2018-11-10T13:22:41.108Z,80.85
2018-11-10T13:25:10.916Z,80.16
2018-11-10T13:27:39.545Z,80.43
2018-11-10T13:30:10.098Z,80.87
2018-11-10T13:32:39.011Z,81.26
2018-11-10T13:35:08.861Z,81.91
2018-11-10T13:37:38.096Z,81.68
2018-11-10T13:40:07.589Z,81.40
2018-11-10T13:42:36.199Z,82.44
2018-11-10T13:45:05.765Z,82.60
2018-11-10T13:47:34.365Z,84.17
2018-11-10T13:50:03.400Z,84.59
2018-11-10T13:52:32.290Z,85.61
2018-11-10T13:55:00.524Z,85.88
2018-11-10T13:57:29.145Z,88.23
2018-11-10T13:59:57.796Z,87.15
2018-11-10T14:02:26.657Z,87.15
2018-11-10T14:04:55.172Z,87.25
2018-11-10T14:07:23.684Z,87.06
2018-11-10T14:09:52.291Z,88.04
2018-11-10T14:12:20.956Z,89.81
2018-11-10T14:14:49.504Z,91.09
2018-11-10T14:17:18.080Z,90.90
2018-11-10T14:19:46.680Z,92.07
2018-11-10T14:22:15.327Z,92.52
2018-11-10T14:24:43.878Z,93.10
2018-11-10T14:27:12.501Z,91.63
2018-11-10T14:29:41.084Z,91.97
2018-11-10T14:32:09.568Z,93.08
2018-11-10T14:34:38.092Z,93.60
2018-11-10T14:37:06.676Z,94.10
2018-11-10T14:39:35.213Z,95.14
2018-11-10T14:42:03.748Z,95.35
2018-11-10T14:44:32.328Z,95.78
2018-11-10T14:47:01.204Z,93.95
2018-11-10T14:49:29.712Z,95.21
2018-11-10T14:51:58.380Z,96.54
2018-11-10T14:54:26.952Z,95.42
2018-11-10T14:56:55.496Z,96.73
2018-11-10T14:59:24.016Z,98.54
2018-11-10T15:01:52.614Z,98.67
2018-11-10T15:04:21.248Z,98.71
2018-11-10T15:06:49.888Z,97.79
2018-11-10T15:09:18.400Z,97.05
2018-11-10T15:11:47.092Z,96.87
2018-11-10T15:14:15.584Z,97.82
2018-11-10T15:16:44.347Z,97.63
2018-11-10T15:19:12.975Z,98.24
2018-11-10T15:21:41.456Z,97.90
2018-11-10T15:24:10.002Z,97.60
2018-11-10T15:26:38.568Z,97.52
2018-11-10T15:29:07.256Z,97.16
2018-11-10T15:31:35.753Z,97.35
2018-11-10T15:34:04.257Z,97.00
2018-11-10T15:36:32.808Z,97.12
2018-11-10T15:39:01.332Z,97.41
2018-11-10T15:41:30.101Z,97.32
2018-11-10T15:43:58.692Z,97.76
2018-11-10T15:46:27.300Z,96.47
2018-11-10T15:48:55.888Z,96.85
2018-11-10T15:51:24.617Z,96.78
2018-11-10T15:53:53.240Z,97.47
2018-11-10T15:56:22.700Z,97.07
2018-11-10T15:58:51.378Z,96.73
2018-11-10T16:01:20.112Z,96.20
2018-11-10T16:03:48.740Z,95.99
2018-11-10T16:06:17.573Z,95.56
2018-11-10T16:08:51.901Z,95.97
2018-11-10T16:11:23.172Z,94.88
2018-11-10T16:13:56.035Z,95.56
2018-11-10T16:16:29.606Z,94.31
2018-11-10T16:18:58.219Z,94.08
2018-11-10T16:21:26.849Z,94.08
2018-11-10T16:23:55.470Z,93.52
2018-11-10T16:26:24.232Z,93.14
2018-11-10T16:28:53.832Z,93.78
2018-11-10T16:31:22.401Z,93.70
2018-11-10T16:33:51.459Z,93.46
2018-11-10T16:36:20.948Z,93.51
2018-11-10T16:38:53.071Z,93.07
2018-11-10T16:41:23.014Z,93.68
2018-11-10T16:43:52.074Z,92.72
2018-11-10T16:46:20.949Z,94.21
2018-11-10T16:48:49.508Z,93.54
2018-11-10T16:51:18.217Z,94.16
2018-11-10T16:53:46.799Z,93.38
2018-11-10T16:56:15.443Z,93.88
2018-11-10T16:58:44.967Z,93.52
2018-11-10T17:01:13.708Z,93.43
2018-11-10T17:03:42.331Z,93.49
2018-11-10T17:06:10.942Z,93.01
2018-11-10T17:08:40.476Z,94.33
2018-11-10T17:11:09.001Z,93.41
2018-11-10T17:13:37.862Z,92.86
2018-11-10T17:16:06.755Z,93.25
2018-11-10T17:18:35.541Z,93.56
2018-11-10T17:21:04.373Z,93.01
2018-11-10T17:23:33.076Z,93.85
2018-11-10T17:26:01.730Z,93.73
2018-11-10T17:28:30.629Z,93.60
2018-11-10T17:30:59.883Z,92.72
2018-11-10T17:33:28.639Z,92.79
2018-11-10T17:35:57.344Z,92.49
2018-11-10T17:38:28.271Z,92.64
2018-11-10T17:40:57.245Z,93.42
2018-11-10T17:43:25.894Z,92.51
2018-11-10T17:45:54.505Z,93.53
2018-11-10T17:48:23.166Z,93.06
2018-11-10T17:50:51.912Z,93.25
2018-11-10T17:53:20.581Z,93.12
2018-11-10T17:55:49.236Z,92.68
2018-11-10T17:58:18.481Z,93.26
2018-11-10T18:00:47.392Z,92.66
2018-11-10T18:06:26.516Z,93.08
2018-11-10T18:08:54.996Z,92.68
2018-11-10T18:11:23.661Z,92.89
2018-11-10T18:13:52.388Z,92.25
2018-11-10T18:16:23.508Z,91.43
2018-11-10T18:18:52.174Z,92.34
2018-11-10T18:21:20.661Z,92.08
2018-11-10T18:23:49.259Z,92.42
2018-11-10T18:26:17.807Z,91.26
2018-11-10T18:28:46.512Z,91.58
2018-11-10T18:31:15.012Z,91.28
2018-11-10T18:33:43.475Z,91.85
2018-11-10T18:36:12.020Z,91.50
2018-11-10T18:38:40.603Z,90.59
2018-11-10T18:41:09.948Z,90.89
2018-11-10T18:43:38.476Z,90.81
2018-11-10T18:46:07.061Z,91.41
2018-11-10T18:48:35.764Z,91.30
2018-11-10T18:51:04.348Z,91.27
2018-11-10T18:53:32.924Z,90.58
2018-11-10T18:56:01.408Z,91.14
2018-11-10T18:58:30.008Z,90.72
2018-11-10T19:00:58.518Z,91.78
2018-11-10T19:03:27.017Z,91.68
2018-11-10T19:05:55.707Z,91.26
2018-11-10T19:08:24.188Z,91.49
2018-11-10T19:10:53.318Z,91.60
2018-11-10T19:13:21.892Z,91.70
2018-11-10T19:15:50.456Z,91.66
2018-11-10T19:18:19.106Z,92.14
2018-11-10T19:20:47.670Z,92.59
2018-11-10T19:23:19.228Z,92.63
2018-11-10T19:25:47.861Z,93.41
2018-11-10T19:28:16.517Z,92.69
2018-11-10T19:30:45.048Z,92.80
2018-11-10T19:33:14.309Z,92.69
2018-11-10T19:35:43.005Z,93.10
2018-11-10T19:38:11.521Z,93.34
2018-11-10T19:40:40.109Z,92.81
2018-11-10T19:43:08.896Z,93.85
2018-11-10T19:45:37.516Z,94.03
2018-11-10T19:48:06.395Z,94.84
2018-11-10T19:50:34.944Z,95.28
2018-11-10T19:53:03.713Z,94.73
2018-11-10T19:55:32.309Z,95.88
2018-11-10T19:58:01.099Z,95.51
2018-11-10T20:00:29.903Z,97.18
2018-11-10T20:02:58.474Z,96.83
2018-11-10T20:05:27.078Z,97.87
2018-11-10T20:07:55.656Z,98.03
2018-11-10T20:10:24.450Z,97.75
2018-11-10T20:12:53.523Z,97.56
2018-11-10T20:15:22.040Z,98.77
2018-11-10T20:17:50.753Z,98.12
2018-11-10T20:20:20.048Z,98.72
2018-11-10T20:22:48.579Z,98.88
2018-11-10T20:25:18.405Z,98.05
2018-11-10T20:27:47.624Z,98.01
2018-11-10T20:30:17.705Z,98.66
2018-11-10T20:32:46.558Z,98.73
2018-11-10T20:35:15.424Z,98.84
2018-11-10T20:37:44.865Z,98.82
2018-11-10T20:40:14.204Z,97.45
2018-11-10T20:42:42.900Z,97.69
2018-11-10T20:45:14.121Z,97.37
2018-11-10T20:47:43.469Z,98.40
2018-11-10T20:50:12.664Z,97.82
2018-11-10T20:52:41.289Z,96.41
2018-11-10T20:55:11.268Z,97.24
2018-11-10T20:57:39.962Z,97.78
2018-11-10T21:00:11.012Z,97.67
2018-11-10T21:02:40.396Z,98.63
2018-11-10T21:05:10.168Z,98.49
2018-11-10T21:07:38.799Z,98.18
2018-11-10T21:10:09.877Z,98.45
2018-11-10T21:12:39.220Z,99.50
2018-11-10T21:15:08.640Z,99.79
2018-11-10T21:17:37.652Z,100.00
2018-11-10T21:20:07.166Z,100.00
2018-11-10T21:22:35.708Z,100.00
2018-11-10T21:25:13.800Z,100.00
2018-11-10T21:27:42.516Z,100.00
2018-11-10T21:30:12.731Z,100.00
2018-11-10T21:32:41.312Z,100.00
2018-11-10T21:35:10.123Z,100.00
2018-11-10T21:37:39.195Z,100.00
2018-11-10T21:40:16.856Z,100.00
2018-11-10T21:42:45.468Z,100.00
2018-11-10T21:45:15.064Z,100.00
2018-11-10T21:47:43.887Z,100.00
2018-11-10T21:50:14.768Z,100.00
2018-11-10T21:52:44.056Z,100.00
2018-11-10T21:55:14.168Z,100.00
2018-11-10T21:57:43.482Z,100.00
2018-11-10T22:00:13.976Z,100.00
2018-11-10T22:02:43.264Z,100.00
2018-11-10T22:05:12.196Z,100.00
2018-11-10T22:07:40.932Z,100.00
2018-11-10T22:10:11.955Z,100.00
2018-11-10T22:12:40.908Z,100.00
2018-11-10T22:15:12.399Z,100.00
2018-11-10T22:17:41.668Z,100.00
2018-11-10T22:20:12.064Z,100.00
2018-11-10T22:22:40.910Z,100.00
2018-11-10T22:25:11.164Z,100.00
2018-11-10T22:27:41.088Z,100.00
2018-11-10T22:30:11.723Z,100.00
2018-11-10T22:32:41.540Z,100.00
2018-11-10T22:35:10.668Z,100.00
2018-11-10T22:37:39.286Z,100.00
2018-11-10T22:40:11.084Z,100.00
2018-11-10T22:42:40.252Z,100.00
2018-11-10T22:45:10.684Z,100.00
2018-11-10T22:47:40.233Z,100.00
2018-11-10T22:50:13.668Z,100.00
2018-11-10T22:52:42.572Z,100.00
2018-11-10T22:55:11.365Z,100.00
2018-11-10T22:57:40.280Z,100.00
2018-11-10T23:00:30.412Z,100.00
2018-11-10T23:03:00.911Z,100.00
2018-11-10T23:05:29.508Z,100.00
2018-11-10T23:07:58.036Z,100.00
2018-11-10T23:10:26.632Z,100.00
2018-11-10T23:12:55.328Z,100.00
2018-11-10T23:15:32.852Z,100.00
2018-11-10T23:18:01.473Z,100.00
2018-11-10T23:20:30.207Z,100.00
2018-11-10T23:22:59.374Z,100.00
2018-11-10T23:25:27.828Z,100.00
2018-11-10T23:27:56.428Z,100.00
2018-11-10T23:30:25.005Z,100.00
2018-11-10T23:32:53.603Z,100.00
2018-11-10T23:35:22.132Z,100.00
2018-11-10T23:37:50.632Z,100.00
2018-11-10T23:40:19.189Z,100.00
2018-11-10T23:42:47.704Z,100.00
2018-11-10T23:45:17.108Z,100.00
2018-11-10T23:47:45.736Z,100.00
2018-11-10T23:50:15.632Z,100.00
2018-11-10T23:52:44.148Z,100.00
2018-11-10T23:55:13.488Z,100.00
2018-11-10T23:57:41.961Z,100.00
